sensor_id;sensor_type;location;lat;lon;timestamp;P1;durP1;ratioP1;P2;durP2;ratioP2
54705;SDS011;40603;48.774;8.916;2023-05-29T00:00:08;7.88;;;4.65;;
54705;SDS011;40603;48.774;8.916;2023-05-29T00:02:34;10.02;;;5.25;;
54705;SDS011;40603;48.774;8.916;2023-05-29T00:04:59;8.57;;;4.25;;
54705;SDS011;40603;48.774;8.916;2023-05-29T00:07:28;12.30;;;5.10;;
54705;SDS011;40603;48.774;8.916;2023-05-29T00:09:54;11.13;;;4.63;;
54705;SDS011;40603;48.774;8.916;2023-05-29T00:12:19;9.35;;;4.43;;
54705;SDS011;40603;48.774;8.916;2023-05-29T00:14:45;10.05;;;5.43;;
54705;SDS011;40603;48.774;8.916;2023-05-29T00:17:10;12.13;;;5.00;;
54705;SDS011;40603;48.774;8.916;2023-05-29T00:19:37;9.95;;;5.10;;
54705;SDS011;40603;48.774;8.916;2023-05-29T00:22:02;10.52;;;5.03;;
54705;SDS011;40603;48.774;8.916;2023-05-29T00:24:28;12.57;;;5.05;;
54705;SDS011;40603;48.774;8.916;2023-05-29T00:26:53;9.35;;;5.03;;
54705;SDS011;40603;48.774;8.916;2023-05-29T00:29:18;7.30;;;4.60;;
54705;SDS011;40603;48.774;8.916;2023-05-29T00:31:46;11.10;;;5.05;;
54705;SDS011;40603;48.774;8.916;2023-05-29T00:34:11;10.18;;;5.20;;
54705;SDS011;40603;48.774;8.916;2023-05-29T00:36:36;9.48;;;4.80;;
54705;SDS011;40603;48.774;8.916;2023-05-29T00:39:02;10.45;;;4.70;;
54705;SDS011;40603;48.774;8.916;2023-05-29T00:41:27;9.18;;;5.10;;
54705;SDS011;40603;48.774;8.916;2023-05-29T00:43:52;8.43;;;4.88;;
54705;SDS011;40603;48.774;8.916;2023-05-29T00:46:18;7.53;;;4.78;;
54705;SDS011;40603;48.774;8.916;2023-05-29T00:48:45;9.60;;;4.63;;
54705;SDS011;40603;48.774;8.916;2023-05-29T00:51:10;9.65;;;4.97;;
54705;SDS011;40603;48.774;8.916;2023-05-29T00:53:37;8.40;;;4.90;;
54705;SDS011;40603;48.774;8.916;2023-05-29T00:56:03;9.38;;;4.70;;
54705;SDS011;40603;48.774;8.916;2023-05-29T00:58:29;8.10;;;4.15;;
54705;SDS011;40603;48.774;8.916;2023-05-29T01:00:55;7.78;;;4.30;;
54705;SDS011;40603;48.774;8.916;2023-05-29T01:03:20;11.27;;;4.80;;
54705;SDS011;40603;48.774;8.916;2023-05-29T01:05:47;7.20;;;4.38;;
54705;SDS011;40603;48.774;8.916;2023-05-29T01:08:13;11.52;;;5.55;;
54705;SDS011;40603;48.774;8.916;2023-05-29T01:10:38;12.63;;;4.90;;
54705;SDS011;40603;48.774;8.916;2023-05-29T01:13:08;11.20;;;4.93;;
54705;SDS011;40603;48.774;8.916;2023-05-29T01:15:41;11.43;;;5.53;;
54705;SDS011;40603;48.774;8.916;2023-05-29T01:20:52;9.80;;;4.95;;
54705;SDS011;40603;48.774;8.916;2023-05-29T01:28:47;8.90;;;4.13;;
54705;SDS011;40603;48.774;8.916;2023-05-29T01:31:13;6.88;;;4.07;;
54705;SDS011;40603;48.774;8.916;2023-05-29T01:33:41;9.50;;;5.13;;
54705;SDS011;40603;48.774;8.916;2023-05-29T01:36:07;10.90;;;4.47;;
54705;SDS011;40603;48.774;8.916;2023-05-29T01:38:33;7.47;;;4.55;;
54705;SDS011;40603;48.774;8.916;2023-05-29T01:40:58;10.25;;;4.45;;
54705;SDS011;40603;48.774;8.916;2023-05-29T01:43:24;8.43;;;4.43;;
54705;SDS011;40603;48.774;8.916;2023-05-29T01:45:51;8.48;;;4.90;;
54705;SDS011;40603;48.774;8.916;2023-05-29T01:48:16;8.57;;;4.80;;
54705;SDS011;40603;48.774;8.916;2023-05-29T01:50:42;9.45;;;5.00;;
54705;SDS011;40603;48.774;8.916;2023-05-29T01:53:08;10.63;;;5.07;;
54705;SDS011;40603;48.774;8.916;2023-05-29T01:55:34;8.70;;;4.47;;
54705;SDS011;40603;48.774;8.916;2023-05-29T01:57:59;7.40;;;4.72;;
54705;SDS011;40603;48.774;8.916;2023-05-29T02:00:25;6.85;;;4.32;;
54705;SDS011;40603;48.774;8.916;2023-05-29T02:02:51;8.27;;;4.38;;
54705;SDS011;40603;48.774;8.916;2023-05-29T02:05:16;7.78;;;4.45;;
54705;SDS011;40603;48.774;8.916;2023-05-29T02:07:42;9.13;;;4.60;;
54705;SDS011;40603;48.774;8.916;2023-05-29T02:10:07;7.78;;;4.28;;
54705;SDS011;40603;48.774;8.916;2023-05-29T02:12:33;13.50;;;5.43;;
54705;SDS011;40603;48.774;8.916;2023-05-29T02:14:58;6.72;;;4.35;;
54705;SDS011;40603;48.774;8.916;2023-05-29T02:17:24;7.10;;;4.57;;
54705;SDS011;40603;48.774;8.916;2023-05-29T02:19:50;10.23;;;4.53;;
54705;SDS011;40603;48.774;8.916;2023-05-29T02:22:16;8.57;;;4.90;;
54705;SDS011;40603;48.774;8.916;2023-05-29T02:24:42;11.68;;;4.82;;
54705;SDS011;40603;48.774;8.916;2023-05-29T02:27:07;11.13;;;4.80;;
54705;SDS011;40603;48.774;8.916;2023-05-29T02:29:33;9.63;;;4.65;;
54705;SDS011;40603;48.774;8.916;2023-05-29T02:31:58;11.13;;;5.20;;
54705;SDS011;40603;48.774;8.916;2023-05-29T02:34:23;7.00;;;4.63;;
54705;SDS011;40603;48.774;8.916;2023-05-29T02:36:49;6.22;;;4.32;;
54705;SDS011;40603;48.774;8.916;2023-05-29T02:39:16;8.02;;;5.40;;
54705;SDS011;40603;48.774;8.916;2023-05-29T02:41:42;8.02;;;4.30;;
54705;SDS011;40603;48.774;8.916;2023-05-29T02:44:07;13.55;;;5.07;;
54705;SDS011;40603;48.774;8.916;2023-05-29T02:46:32;14.48;;;5.57;;
54705;SDS011;40603;48.774;8.916;2023-05-29T02:48:58;6.97;;;4.50;;
54705;SDS011;40603;48.774;8.916;2023-05-29T02:51:23;11.20;;;4.80;;
54705;SDS011;40603;48.774;8.916;2023-05-29T02:53:48;10.45;;;5.07;;
54705;SDS011;40603;48.774;8.916;2023-05-29T02:56:14;8.20;;;4.90;;
54705;SDS011;40603;48.774;8.916;2023-05-29T02:58:40;8.77;;;4.20;;
54705;SDS011;40603;48.774;8.916;2023-05-29T03:01:06;11.30;;;4.43;;
54705;SDS011;40603;48.774;8.916;2023-05-29T03:03:31;12.52;;;4.60;;
54705;SDS011;40603;48.774;8.916;2023-05-29T03:05:57;7.28;;;4.80;;
54705;SDS011;40603;48.774;8.916;2023-05-29T03:08:22;9.00;;;4.75;;
54705;SDS011;40603;48.774;8.916;2023-05-29T03:10:49;10.02;;;4.50;;
54705;SDS011;40603;48.774;8.916;2023-05-29T03:13:14;9.45;;;4.90;;
54705;SDS011;40603;48.774;8.916;2023-05-29T03:15:39;8.70;;;4.72;;
54705;SDS011;40603;48.774;8.916;2023-05-29T03:18:04;7.95;;;5.25;;
54705;SDS011;40603;48.774;8.916;2023-05-29T03:20:30;10.27;;;4.60;;
54705;SDS011;40603;48.774;8.916;2023-05-29T03:22:55;7.80;;;4.95;;
54705;SDS011;40603;48.774;8.916;2023-05-29T03:25:21;9.02;;;4.40;;
54705;SDS011;40603;48.774;8.916;2023-05-29T03:27:47;7.78;;;4.05;;
54705;SDS011;40603;48.774;8.916;2023-05-29T03:30:12;9.40;;;4.32;;
54705;SDS011;40603;48.774;8.916;2023-05-29T03:32:37;8.07;;;4.90;;
54705;SDS011;40603;48.774;8.916;2023-05-29T03:35:03;8.73;;;4.50;;
54705;SDS011;40603;48.774;8.916;2023-05-29T03:37:28;9.27;;;4.40;;
54705;SDS011;40603;48.774;8.916;2023-05-29T03:39:54;7.82;;;4.38;;
54705;SDS011;40603;48.774;8.916;2023-05-29T03:42:19;7.50;;;4.03;;
54705;SDS011;40603;48.774;8.916;2023-05-29T03:44:45;10.43;;;4.40;;
54705;SDS011;40603;48.774;8.916;2023-05-29T03:47:10;5.40;;;3.53;;
54705;SDS011;40603;48.774;8.916;2023-05-29T03:49:36;9.35;;;4.47;;
54705;SDS011;40603;48.774;8.916;2023-05-29T03:52:01;7.65;;;5.05;;
54705;SDS011;40603;48.774;8.916;2023-05-29T03:54:26;9.40;;;5.15;;
54705;SDS011;40603;48.774;8.916;2023-05-29T03:56:51;10.95;;;4.63;;
54705;SDS011;40603;48.774;8.916;2023-05-29T03:59:17;6.40;;;4.22;;
54705;SDS011;40603;48.774;8.916;2023-05-29T04:01:42;13.88;;;4.88;;
54705;SDS011;40603;48.774;8.916;2023-05-29T04:04:07;9.90;;;4.55;;
54705;SDS011;40603;48.774;8.916;2023-05-29T04:06:33;11.48;;;4.95;;
54705;SDS011;40603;48.774;8.916;2023-05-29T04:08:58;9.95;;;4.78;;
54705;SDS011;40603;48.774;8.916;2023-05-29T04:11:23;8.20;;;4.82;;
54705;SDS011;40603;48.774;8.916;2023-05-29T04:13:49;9.63;;;4.85;;
54705;SDS011;40603;48.774;8.916;2023-05-29T04:16:14;8.30;;;4.43;;
54705;SDS011;40603;48.774;8.916;2023-05-29T04:18:40;10.27;;;4.32;;
54705;SDS011;40603;48.774;8.916;2023-05-29T04:21:05;9.32;;;4.35;;
54705;SDS011;40603;48.774;8.916;2023-05-29T04:23:31;9.98;;;4.32;;
54705;SDS011;40603;48.774;8.916;2023-05-29T04:25:56;7.45;;;4.53;;
54705;SDS011;40603;48.774;8.916;2023-05-29T04:28:22;7.05;;;4.00;;
54705;SDS011;40603;48.774;8.916;2023-05-29T04:30:48;6.45;;;4.50;;
54705;SDS011;40603;48.774;8.916;2023-05-29T04:33:13;10.07;;;4.75;;
54705;SDS011;40603;48.774;8.916;2023-05-29T04:35:39;10.30;;;4.47;;
54705;SDS011;40603;48.774;8.916;2023-05-29T04:38:08;8.93;;;4.60;;
54705;SDS011;40603;48.774;8.916;2023-05-29T04:40:34;6.53;;;3.70;;
54705;SDS011;40603;48.774;8.916;2023-05-29T04:43:01;7.32;;;4.30;;
54705;SDS011;40603;48.774;8.916;2023-05-29T04:45:27;10.32;;;5.00;;
54705;SDS011;40603;48.774;8.916;2023-05-29T04:47:52;10.25;;;4.47;;
54705;SDS011;40603;48.774;8.916;2023-05-29T04:50:20;9.93;;;5.03;;
54705;SDS011;40603;48.774;8.916;2023-05-29T04:52:45;11.63;;;5.43;;
54705;SDS011;40603;48.774;8.916;2023-05-29T04:55:11;12.48;;;5.20;;
54705;SDS011;40603;48.774;8.916;2023-05-29T04:57:36;14.98;;;5.75;;
54705;SDS011;40603;48.774;8.916;2023-05-29T05:00:03;9.75;;;5.90;;
54705;SDS011;40603;48.774;8.916;2023-05-29T05:02:33;10.35;;;5.50;;
54705;SDS011;40603;48.774;8.916;2023-05-29T05:04:58;9.68;;;5.38;;
54705;SDS011;40603;48.774;8.916;2023-05-29T05:07:24;12.40;;;5.85;;
54705;SDS011;40603;48.774;8.916;2023-05-29T05:09:49;8.73;;;5.03;;
54705;SDS011;40603;48.774;8.916;2023-05-29T05:12:14;11.68;;;5.05;;
54705;SDS011;40603;48.774;8.916;2023-05-29T05:14:40;8.13;;;4.30;;
54705;SDS011;40603;48.774;8.916;2023-05-29T05:17:05;7.57;;;4.10;;
54705;SDS011;40603;48.774;8.916;2023-05-29T05:19:30;12.65;;;5.15;;
54705;SDS011;40603;48.774;8.916;2023-05-29T05:21:56;7.95;;;4.72;;
54705;SDS011;40603;48.774;8.916;2023-05-29T05:24:21;7.30;;;4.40;;
54705;SDS011;40603;48.774;8.916;2023-05-29T05:26:46;8.57;;;4.75;;
54705;SDS011;40603;48.774;8.916;2023-05-29T05:29:12;9.38;;;4.70;;
54705;SDS011;40603;48.774;8.916;2023-05-29T05:31:38;9.50;;;4.97;;
54705;SDS011;40603;48.774;8.916;2023-05-29T05:34:03;8.68;;;4.63;;
54705;SDS011;40603;48.774;8.916;2023-05-29T05:36:29;8.57;;;4.47;;
54705;SDS011;40603;48.774;8.916;2023-05-29T05:38:54;8.68;;;4.30;;
54705;SDS011;40603;48.774;8.916;2023-05-29T05:41:19;9.25;;;4.63;;
54705;SDS011;40603;48.774;8.916;2023-05-29T05:43:46;10.30;;;4.72;;
54705;SDS011;40603;48.774;8.916;2023-05-29T05:46:11;6.75;;;4.18;;
54705;SDS011;40603;48.774;8.916;2023-05-29T05:48:37;6.57;;;3.95;;
54705;SDS011;40603;48.774;8.916;2023-05-29T05:51:02;12.60;;;4.53;;
54705;SDS011;40603;48.774;8.916;2023-05-29T05:53:28;10.95;;;4.28;;
54705;SDS011;40603;48.774;8.916;2023-05-29T05:55:53;9.30;;;4.90;;
54705;SDS011;40603;48.774;8.916;2023-05-29T05:58:19;11.52;;;4.50;;
54705;SDS011;40603;48.774;8.916;2023-05-29T06:00:44;7.55;;;4.22;;
54705;SDS011;40603;48.774;8.916;2023-05-29T06:03:10;11.43;;;4.40;;
54705;SDS011;40603;48.774;8.916;2023-05-29T06:05:35;8.10;;;4.55;;
54705;SDS011;40603;48.774;8.916;2023-05-29T06:08:02;10.07;;;4.28;;
54705;SDS011;40603;48.774;8.916;2023-05-29T06:10:28;7.53;;;3.80;;
54705;SDS011;40603;48.774;8.916;2023-05-29T06:12:53;7.85;;;3.88;;
54705;SDS011;40603;48.774;8.916;2023-05-29T06:15:19;7.47;;;4.25;;
54705;SDS011;40603;48.774;8.916;2023-05-29T06:17:44;11.75;;;4.20;;
54705;SDS011;40603;48.774;8.916;2023-05-29T06:20:09;8.38;;;4.38;;
54705;SDS011;40603;48.774;8.916;2023-05-29T06:22:36;10.25;;;4.20;;
54705;SDS011;40603;48.774;8.916;2023-05-29T06:25:02;8.00;;;4.38;;
54705;SDS011;40603;48.774;8.916;2023-05-29T06:27:27;7.05;;;3.60;;
54705;SDS011;40603;48.774;8.916;2023-05-29T06:29:53;7.15;;;3.33;;
54705;SDS011;40603;48.774;8.916;2023-05-29T06:32:18;7.72;;;3.88;;
54705;SDS011;40603;48.774;8.916;2023-05-29T06:34:43;6.55;;;4.32;;
54705;SDS011;40603;48.774;8.916;2023-05-29T06:37:09;9.15;;;4.20;;
54705;SDS011;40603;48.774;8.916;2023-05-29T06:39:34;8.32;;;4.20;;
54705;SDS011;40603;48.774;8.916;2023-05-29T06:41:59;9.82;;;4.18;;
54705;SDS011;40603;48.774;8.916;2023-05-29T06:44:26;6.55;;;3.90;;
54705;SDS011;40603;48.774;8.916;2023-05-29T06:46:51;11.70;;;4.45;;
54705;SDS011;40603;48.774;8.916;2023-05-29T06:49:17;6.93;;;3.17;;
54705;SDS011;40603;48.774;8.916;2023-05-29T06:51:43;5.57;;;3.33;;
54705;SDS011;40603;48.774;8.916;2023-05-29T06:54:09;9.43;;;3.95;;
54705;SDS011;40603;48.774;8.916;2023-05-29T06:56:35;7.07;;;3.60;;
54705;SDS011;40603;48.774;8.916;2023-05-29T06:59:00;6.82;;;3.35;;
54705;SDS011;40603;48.774;8.916;2023-05-29T07:01:25;7.55;;;2.85;;
54705;SDS011;40603;48.774;8.916;2023-05-29T07:03:54;9.10;;;4.45;;
54705;SDS011;40603;48.774;8.916;2023-05-29T07:06:19;6.63;;;3.28;;
54705;SDS011;40603;48.774;8.916;2023-05-29T07:08:45;6.80;;;3.53;;
54705;SDS011;40603;48.774;8.916;2023-05-29T07:11:10;7.32;;;3.75;;
54705;SDS011;40603;48.774;8.916;2023-05-29T07:13:35;8.75;;;3.95;;
54705;SDS011;40603;48.774;8.916;2023-05-29T07:16:01;9.00;;;3.38;;
54705;SDS011;40603;48.774;8.916;2023-05-29T07:18:26;7.35;;;3.28;;
54705;SDS011;40603;48.774;8.916;2023-05-29T07:20:51;7.82;;;3.08;;
54705;SDS011;40603;48.774;8.916;2023-05-29T07:23:17;8.60;;;3.58;;
54705;SDS011;40603;48.774;8.916;2023-05-29T07:25:42;7.07;;;3.28;;
54705;SDS011;40603;48.774;8.916;2023-05-29T07:28:07;8.45;;;3.75;;
54705;SDS011;40603;48.774;8.916;2023-05-29T07:30:33;6.82;;;3.17;;
54705;SDS011;40603;48.774;8.916;2023-05-29T07:32:58;7.72;;;3.65;;
54705;SDS011;40603;48.774;8.916;2023-05-29T07:35:23;7.68;;;4.05;;
54705;SDS011;40603;48.774;8.916;2023-05-29T07:37:49;7.00;;;3.30;;
54705;SDS011;40603;48.774;8.916;2023-05-29T07:40:16;9.85;;;3.42;;
54705;SDS011;40603;48.774;8.916;2023-05-29T07:42:41;7.50;;;3.25;;
54705;SDS011;40603;48.774;8.916;2023-05-29T07:45:07;6.85;;;3.60;;
54705;SDS011;40603;48.774;8.916;2023-05-29T07:47:32;8.77;;;3.38;;
54705;SDS011;40603;48.774;8.916;2023-05-29T07:49:57;7.10;;;3.80;;
54705;SDS011;40603;48.774;8.916;2023-05-29T07:52:23;6.47;;;3.50;;
54705;SDS011;40603;48.774;8.916;2023-05-29T07:54:48;8.50;;;3.60;;
54705;SDS011;40603;48.774;8.916;2023-05-29T07:57:13;7.97;;;3.05;;
54705;SDS011;40603;48.774;8.916;2023-05-29T07:59:42;8.55;;;3.85;;
54705;SDS011;40603;48.774;8.916;2023-05-29T08:02:07;7.45;;;3.58;;
54705;SDS011;40603;48.774;8.916;2023-05-29T08:04:33;9.82;;;4.13;;
54705;SDS011;40603;48.774;8.916;2023-05-29T08:06:59;8.40;;;3.72;;
54705;SDS011;40603;48.774;8.916;2023-05-29T08:09:26;9.65;;;3.60;;
54705;SDS011;40603;48.774;8.916;2023-05-29T08:11:51;7.13;;;3.75;;
54705;SDS011;40603;48.774;8.916;2023-05-29T08:14:16;10.25;;;4.18;;
54705;SDS011;40603;48.774;8.916;2023-05-29T08:16:42;7.88;;;3.65;;
54705;SDS011;40603;48.774;8.916;2023-05-29T08:19:07;7.10;;;3.95;;
54705;SDS011;40603;48.774;8.916;2023-05-29T08:21:33;6.22;;;3.42;;
54705;SDS011;40603;48.774;8.916;2023-05-29T08:23:58;7.47;;;4.22;;
54705;SDS011;40603;48.774;8.916;2023-05-29T08:26:24;7.72;;;4.00;;
54705;SDS011;40603;48.774;8.916;2023-05-29T08:28:49;7.43;;;4.20;;
54705;SDS011;40603;48.774;8.916;2023-05-29T08:31:15;7.20;;;4.00;;
54705;SDS011;40603;48.774;8.916;2023-05-29T08:33:40;6.25;;;3.70;;
54705;SDS011;40603;48.774;8.916;2023-05-29T08:36:06;6.55;;;3.55;;
54705;SDS011;40603;48.774;8.916;2023-05-29T08:38:32;10.73;;;4.00;;
54705;SDS011;40603;48.774;8.916;2023-05-29T08:40:57;7.63;;;3.67;;
54705;SDS011;40603;48.774;8.916;2023-05-29T08:43:25;8.98;;;3.78;;
54705;SDS011;40603;48.774;8.916;2023-05-29T08:45:56;10.32;;;3.85;;
54705;SDS011;40603;48.774;8.916;2023-05-29T08:48:25;8.73;;;3.80;;
54705;SDS011;40603;48.774;8.916;2023-05-29T08:50:52;8.25;;;3.95;;
54705;SDS011;40603;48.774;8.916;2023-05-29T08:53:19;8.63;;;3.75;;
54705;SDS011;40603;48.774;8.916;2023-05-29T08:55:44;6.13;;;3.63;;
54705;SDS011;40603;48.774;8.916;2023-05-29T08:58:12;7.88;;;4.43;;
54705;SDS011;40603;48.774;8.916;2023-05-29T09:00:38;7.20;;;4.18;;
54705;SDS011;40603;48.774;8.916;2023-05-29T09:03:03;7.13;;;4.00;;
54705;SDS011;40603;48.774;8.916;2023-05-29T09:05:28;9.40;;;4.15;;
54705;SDS011;40603;48.774;8.916;2023-05-29T09:07:54;7.82;;;3.80;;
54705;SDS011;40603;48.774;8.916;2023-05-29T09:10:20;8.50;;;3.88;;
54705;SDS011;40603;48.774;8.916;2023-05-29T09:12:47;9.52;;;4.30;;
54705;SDS011;40603;48.774;8.916;2023-05-29T09:15:18;9.13;;;3.85;;
54705;SDS011;40603;48.774;8.916;2023-05-29T09:17:49;10.43;;;4.47;;
54705;SDS011;40603;48.774;8.916;2023-05-29T09:20:22;11.50;;;4.20;;
54705;SDS011;40603;48.774;8.916;2023-05-29T09:25:26;7.07;;;3.95;;
54705;SDS011;40603;48.774;8.916;2023-05-29T09:27:56;8.18;;;4.00;;
54705;SDS011;40603;48.774;8.916;2023-05-29T09:30:40;7.65;;;4.22;;
54705;SDS011;40603;48.774;8.916;2023-05-29T09:33:07;10.05;;;4.47;;
54705;SDS011;40603;48.774;8.916;2023-05-29T09:35:34;7.68;;;4.65;;
54705;SDS011;40603;48.774;8.916;2023-05-29T09:38:00;6.78;;;4.40;;
54705;SDS011;40603;48.774;8.916;2023-05-29T09:40:26;7.15;;;4.03;;
54705;SDS011;40603;48.774;8.916;2023-05-29T09:42:51;11.73;;;4.18;;
54705;SDS011;40603;48.774;8.916;2023-05-29T09:45:17;9.07;;;4.32;;
54705;SDS011;40603;48.774;8.916;2023-05-29T09:47:43;6.75;;;3.97;;
54705;SDS011;40603;48.774;8.916;2023-05-29T09:50:14;5.47;;;4.18;;
54705;SDS011;40603;48.774;8.916;2023-05-29T09:52:43;9.30;;;4.13;;
54705;SDS011;40603;48.774;8.916;2023-05-29T09:55:09;12.43;;;3.88;;
54705;SDS011;40603;48.774;8.916;2023-05-29T09:57:35;7.40;;;3.78;;
54705;SDS011;40603;48.774;8.916;2023-05-29T10:00:01;10.57;;;4.57;;
54705;SDS011;40603;48.774;8.916;2023-05-29T10:02:28;6.70;;;3.70;;
54705;SDS011;40603;48.774;8.916;2023-05-29T10:04:54;11.35;;;4.65;;
54705;SDS011;40603;48.774;8.916;2023-05-29T10:07:24;6.65;;;3.72;;
54705;SDS011;40603;48.774;8.916;2023-05-29T10:09:53;8.27;;;3.63;;
54705;SDS011;40603;48.774;8.916;2023-05-29T10:12:26;7.93;;;3.83;;
54705;SDS011;40603;48.774;8.916;2023-05-29T10:14:53;6.47;;;3.60;;
54705;SDS011;40603;48.774;8.916;2023-05-29T10:17:20;5.95;;;3.38;;
54705;SDS011;40603;48.774;8.916;2023-05-29T10:19:48;9.10;;;4.13;;
54705;SDS011;40603;48.774;8.916;2023-05-29T10:22:14;9.38;;;4.28;;
54705;SDS011;40603;48.774;8.916;2023-05-29T10:24:42;8.18;;;3.78;;
54705;SDS011;40603;48.774;8.916;2023-05-29T10:27:07;15.30;;;3.70;;
54705;SDS011;40603;48.774;8.916;2023-05-29T10:29:35;7.95;;;4.03;;
54705;SDS011;40603;48.774;8.916;2023-05-29T10:32:04;5.60;;;3.40;;
54705;SDS011;40603;48.774;8.916;2023-05-29T10:35:12;7.13;;;3.83;;
54705;SDS011;40603;48.774;8.916;2023-05-29T10:37:42;7.30;;;3.97;;
54705;SDS011;40603;48.774;8.916;2023-05-29T10:40:11;7.97;;;4.00;;
54705;SDS011;40603;48.774;8.916;2023-05-29T10:42:41;5.80;;;3.33;;
54705;SDS011;40603;48.774;8.916;2023-05-29T10:45:11;8.45;;;3.88;;
54705;SDS011;40603;48.774;8.916;2023-05-29T10:50:36;7.43;;;3.67;;
54705;SDS011;40603;48.774;8.916;2023-05-29T10:53:14;8.23;;;4.15;;
54705;SDS011;40603;48.774;8.916;2023-05-29T10:55:44;6.93;;;3.35;;
54705;SDS011;40603;48.774;8.916;2023-05-29T10:58:14;8.38;;;3.65;;
54705;SDS011;40603;48.774;8.916;2023-05-29T11:00:43;6.25;;;3.47;;
54705;SDS011;40603;48.774;8.916;2023-05-29T11:03:11;9.23;;;3.60;;
54705;SDS011;40603;48.774;8.916;2023-05-29T11:05:58;7.18;;;3.85;;
54705;SDS011;40603;48.774;8.916;2023-05-29T11:08:33;7.18;;;3.28;;
54705;SDS011;40603;48.774;8.916;2023-05-29T11:11:00;9.75;;;4.03;;
54705;SDS011;40603;48.774;8.916;2023-05-29T11:13:26;8.82;;;3.22;;
54705;SDS011;40603;48.774;8.916;2023-05-29T11:18:42;7.97;;;3.33;;
54705;SDS011;40603;48.774;8.916;2023-05-29T11:21:22;7.85;;;3.28;;
54705;SDS011;40603;48.774;8.916;2023-05-29T11:23:53;6.78;;;3.72;;
54705;SDS011;40603;48.774;8.916;2023-05-29T11:26:19;6.72;;;3.72;;
54705;SDS011;40603;48.774;8.916;2023-05-29T11:28:48;6.53;;;3.03;;
54705;SDS011;40603;48.774;8.916;2023-05-29T11:31:13;6.28;;;3.25;;
54705;SDS011;40603;48.774;8.916;2023-05-29T11:33:41;6.78;;;3.03;;
54705;SDS011;40603;48.774;8.916;2023-05-29T11:36:13;7.18;;;3.30;;
54705;SDS011;40603;48.774;8.916;2023-05-29T11:38:39;6.47;;;3.10;;
54705;SDS011;40603;48.774;8.916;2023-05-29T11:41:04;6.38;;;3.10;;
54705;SDS011;40603;48.774;8.916;2023-05-29T11:43:29;6.53;;;3.25;;
54705;SDS011;40603;48.774;8.916;2023-05-29T11:45:55;10.50;;;3.50;;
54705;SDS011;40603;48.774;8.916;2023-05-29T11:48:20;6.90;;;3.10;;
54705;SDS011;40603;48.774;8.916;2023-05-29T11:50:46;6.85;;;3.15;;
54705;SDS011;40603;48.774;8.916;2023-05-29T11:53:12;12.95;;;3.20;;
54705;SDS011;40603;48.774;8.916;2023-05-29T11:55:37;7.55;;;3.38;;
54705;SDS011;40603;48.774;8.916;2023-05-29T11:58:03;9.63;;;3.30;;
54705;SDS011;40603;48.774;8.916;2023-05-29T12:00:33;12.63;;;3.35;;
54705;SDS011;40603;48.774;8.916;2023-05-29T12:02:59;10.15;;;2.75;;
54705;SDS011;40603;48.774;8.916;2023-05-29T12:05:28;9.17;;;3.23;;
54705;SDS011;40603;48.774;8.916;2023-05-29T12:07:55;6.38;;;3.58;;
54705;SDS011;40603;48.774;8.916;2023-05-29T12:10:27;4.95;;;3.22;;
54705;SDS011;40603;48.774;8.916;2023-05-29T12:12:58;7.38;;;3.30;;
54705;SDS011;40603;48.774;8.916;2023-05-29T12:15:25;5.90;;;3.25;;
54705;SDS011;40603;48.774;8.916;2023-05-29T12:17:51;5.72;;;2.95;;
54705;SDS011;40603;48.774;8.916;2023-05-29T12:20:17;10.15;;;2.92;;
54705;SDS011;40603;48.774;8.916;2023-05-29T12:22:44;5.07;;;2.80;;
54705;SDS011;40603;48.774;8.916;2023-05-29T12:27:39;7.97;;;3.30;;
54705;SDS011;40603;48.774;8.916;2023-05-29T12:30:09;8.30;;;3.00;;
54705;SDS011;40603;48.774;8.916;2023-05-29T12:32:38;4.57;;;2.75;;
54705;SDS011;40603;48.774;8.916;2023-05-29T12:35:21;5.22;;;2.60;;
54705;SDS011;40603;48.774;8.916;2023-05-29T12:37:49;6.38;;;3.20;;
54705;SDS011;40603;48.774;8.916;2023-05-29T12:40:33;4.47;;;3.20;;
54705;SDS011;40603;48.774;8.916;2023-05-29T12:43:04;6.15;;;3.35;;
54705;SDS011;40603;48.774;8.916;2023-05-29T12:45:31;5.60;;;3.10;;
54705;SDS011;40603;48.774;8.916;2023-05-29T12:48:05;5.18;;;3.17;;
54705;SDS011;40603;48.774;8.916;2023-05-29T12:50:32;7.32;;;3.63;;
54705;SDS011;40603;48.774;8.916;2023-05-29T12:53:01;5.55;;;3.17;;
54705;SDS011;40603;48.774;8.916;2023-05-29T12:55:29;6.05;;;3.00;;
54705;SDS011;40603;48.774;8.916;2023-05-29T12:57:55;5.95;;;3.05;;
54705;SDS011;40603;48.774;8.916;2023-05-29T13:00:22;8.85;;;3.25;;
54705;SDS011;40603;48.774;8.916;2023-05-29T13:02:47;4.18;;;3.00;;
54705;SDS011;40603;48.774;8.916;2023-05-29T13:05:13;4.25;;;2.83;;
54705;SDS011;40603;48.774;8.916;2023-05-29T13:07:40;4.85;;;3.38;;
54705;SDS011;40603;48.774;8.916;2023-05-29T13:10:06;5.18;;;3.15;;
54705;SDS011;40603;48.774;8.916;2023-05-29T13:12:31;7.20;;;3.03;;
54705;SDS011;40603;48.774;8.916;2023-05-29T13:14:57;4.10;;;2.75;;
54705;SDS011;40603;48.774;8.916;2023-05-29T13:17:22;6.57;;;3.08;;
54705;SDS011;40603;48.774;8.916;2023-05-29T13:19:47;8.45;;;3.03;;
54705;SDS011;40603;48.774;8.916;2023-05-29T13:22:13;6.47;;;3.03;;
54705;SDS011;40603;48.774;8.916;2023-05-29T13:24:38;7.95;;;3.25;;
54705;SDS011;40603;48.774;8.916;2023-05-29T13:27:03;5.72;;;2.83;;
54705;SDS011;40603;48.774;8.916;2023-05-29T13:29:30;4.80;;;3.08;;
54705;SDS011;40603;48.774;8.916;2023-05-29T13:31:55;4.60;;;3.08;;
54705;SDS011;40603;48.774;8.916;2023-05-29T13:34:20;5.60;;;2.75;;
54705;SDS011;40603;48.774;8.916;2023-05-29T13:36:48;7.72;;;2.72;;
54705;SDS011;40603;48.774;8.916;2023-05-29T13:39:13;6.68;;;2.90;;
54705;SDS011;40603;48.774;8.916;2023-05-29T13:41:39;6.00;;;3.05;;
54705;SDS011;40603;48.774;8.916;2023-05-29T13:44:04;4.07;;;2.67;;
54705;SDS011;40603;48.774;8.916;2023-05-29T13:46:30;6.70;;;3.20;;
54705;SDS011;40603;48.774;8.916;2023-05-29T13:48:55;6.07;;;2.85;;
54705;SDS011;40603;48.774;8.916;2023-05-29T13:51:20;6.32;;;3.33;;
54705;SDS011;40603;48.774;8.916;2023-05-29T13:53:46;5.80;;;3.05;;
54705;SDS011;40603;48.774;8.916;2023-05-29T13:56:11;9.07;;;2.60;;
54705;SDS011;40603;48.774;8.916;2023-05-29T13:58:36;5.90;;;3.35;;
54705;SDS011;40603;48.774;8.916;2023-05-29T14:01:02;7.20;;;3.33;;
54705;SDS011;40603;48.774;8.916;2023-05-29T14:03:27;5.80;;;2.72;;
54705;SDS011;40603;48.774;8.916;2023-05-29T14:05:53;6.35;;;3.13;;
54705;SDS011;40603;48.774;8.916;2023-05-29T14:08:19;5.60;;;3.40;;
54705;SDS011;40603;48.774;8.916;2023-05-29T14:10:44;10.45;;;3.08;;
54705;SDS011;40603;48.774;8.916;2023-05-29T14:13:10;6.13;;;3.15;;
54705;SDS011;40603;48.774;8.916;2023-05-29T14:15:38;6.30;;;2.80;;
54705;SDS011;40603;48.774;8.916;2023-05-29T14:18:03;6.18;;;2.85;;
54705;SDS011;40603;48.774;8.916;2023-05-29T14:20:30;4.82;;;3.10;;
54705;SDS011;40603;48.774;8.916;2023-05-29T14:22:55;7.28;;;3.08;;
54705;SDS011;40603;48.774;8.916;2023-05-29T14:25:20;5.50;;;2.97;;
54705;SDS011;40603;48.774;8.916;2023-05-29T14:27:46;8.02;;;2.88;;
54705;SDS011;40603;48.774;8.916;2023-05-29T14:30:11;4.80;;;2.90;;
54705;SDS011;40603;48.774;8.916;2023-05-29T14:32:36;5.93;;;3.30;;
54705;SDS011;40603;48.774;8.916;2023-05-29T14:35:02;5.13;;;2.75;;
54705;SDS011;40603;48.774;8.916;2023-05-29T14:37:27;4.03;;;3.10;;
54705;SDS011;40603;48.774;8.916;2023-05-29T14:39:52;5.15;;;2.85;;
54705;SDS011;40603;48.774;8.916;2023-05-29T14:42:18;4.85;;;2.63;;
54705;SDS011;40603;48.774;8.916;2023-05-29T14:44:43;6.65;;;3.40;;
54705;SDS011;40603;48.774;8.916;2023-05-29T14:47:08;8.23;;;3.15;;
54705;SDS011;40603;48.774;8.916;2023-05-29T14:49:35;4.85;;;2.97;;
54705;SDS011;40603;48.774;8.916;2023-05-29T14:52:01;3.92;;;2.75;;
54705;SDS011;40603;48.774;8.916;2023-05-29T14:54:28;7.28;;;3.17;;
54705;SDS011;40603;48.774;8.916;2023-05-29T14:56:53;5.07;;;3.30;;
54705;SDS011;40603;48.774;8.916;2023-05-29T14:59:19;5.85;;;2.70;;